sensor_id;sensor_type;location;lat;lon;timestamp;pressure;altitude;pressure_sealevel;temperature;humidity
31331;BME280;34067;39.548;-76.088;2023-04-08T00:00:26;102723.97;;;11.36;26.67
31331;BME280;34067;39.548;-76.088;2023-04-08T00:02:55;102721.30;;;12.44;28.45
31331;BME280;34067;39.548;-76.088;2023-04-08T00:05:23;102723.05;;;11.45;27.42
31331;BME280;34067;39.548;-76.088;2023-04-08T00:07:51;102735.89;;;12.44;25.91
31331;BME280;34067;39.548;-76.088;2023-04-08T00:10:19;102733.40;;;12.72;25.18
31331;BME280;34067;39.548;-76.088;2023-04-08T00:12:47;102725.56;;;12.47;25.06
31331;BME280;34067;39.548;-76.088;2023-04-08T00:15:15;102723.72;;;13.01;28.46
31331;BME280;34067;39.548;-76.088;2023-04-08T00:17:43;102736.04;;;10.45;27.77
31331;BME280;34067;39.548;-76.088;2023-04-08T00:20:11;102743.68;;;11.79;27.22
31331;BME280;34067;39.548;-76.088;2023-04-08T00:22:39;102739.18;;;11.99;26.01
31331;BME280;34067;39.548;-76.088;2023-04-08T00:25:08;102742.13;;;12.79;27.04
31331;BME280;34067;39.548;-76.088;2023-04-08T00:27:36;102739.52;;;12.62;26.23
31331;BME280;34067;39.548;-76.088;2023-04-08T00:30:05;102751.23;;;12.55;25.36
31331;BME280;34067;39.548;-76.088;2023-04-08T00:32:33;102759.43;;;12.39;25.66
31331;BME280;34067;39.548;-76.088;2023-04-08T00:35:01;102751.95;;;12.07;26.77
31331;BME280;34067;39.548;-76.088;2023-04-08T00:37:29;102753.60;;;12.12;25.27
31331;BME280;34067;39.548;-76.088;2023-04-08T00:39:57;102758.65;;;12.80;25.48
31331;BME280;34067;39.548;-76.088;2023-04-08T00:42:25;102762.41;;;12.19;25.17
31331;BME280;34067;39.548;-76.088;2023-04-08T00:44:54;102759.70;;;12.84;25.52
31331;BME280;34067;39.548;-76.088;2023-04-08T00:47:22;102770.02;;;12.71;24.89
31331;BME280;34067;39.548;-76.088;2023-04-08T00:49:50;102773.83;;;12.80;25.24
31331;BME280;34067;39.548;-76.088;2023-04-08T00:52:18;102773.30;;;12.25;26.11
31331;BME280;34067;39.548;-76.088;2023-04-08T00:54:47;102782.07;;;12.10;26.01
31331;BME280;34067;39.548;-76.088;2023-04-08T00:57:14;102784.17;;;12.50;25.77
31331;BME280;34067;39.548;-76.088;2023-04-08T00:59:43;102780.37;;;12.26;25.65
31331;BME280;34067;39.548;-76.088;2023-04-08T01:02:15;102780.23;;;10.54;25.67
31331;BME280;34067;39.548;-76.088;2023-04-08T01:04:54;102790.63;;;11.22;26.08
31331;BME280;34067;39.548;-76.088;2023-04-08T01:07:30;102791.78;;;12.11;25.89
31331;BME280;34067;39.548;-76.088;2023-04-08T01:10:04;102794.20;;;12.69;25.76
31331;BME280;34067;39.548;-76.088;2023-04-08T01:12:39;102803.57;;;12.35;25.08
31331;BME280;34067;39.548;-76.088;2023-04-08T01:15:11;102812.04;;;11.46;25.42
31331;BME280;34067;39.548;-76.088;2023-04-08T01:17:40;102808.03;;;12.98;25.15
31331;BME280;34067;39.548;-76.088;2023-04-08T01:20:10;102805.08;;;12.68;24.76
31331;BME280;34067;39.548;-76.088;2023-04-08T01:22:59;102812.51;;;12.78;24.89
31331;BME280;34067;39.548;-76.088;2023-04-08T01:25:32;102818.98;;;12.75;25.19
31331;BME280;34067;39.548;-76.088;2023-04-08T01:28:02;102823.06;;;11.62;24.97
31331;BME280;34067;39.548;-76.088;2023-04-08T01:30:32;102824.67;;;12.20;24.02
31331;BME280;34067;39.548;-76.088;2023-04-08T01:33:02;102834.76;;;11.93;24.81
31331;BME280;34067;39.548;-76.088;2023-04-08T01:35:30;102830.50;;;11.72;25.17
31331;BME280;34067;39.548;-76.088;2023-04-08T01:37:59;102828.50;;;12.22;26.11
31331;BME280;34067;39.548;-76.088;2023-04-08T01:40:27;102829.64;;;12.27;25.50
31331;BME280;34067;39.548;-76.088;2023-04-08T01:42:57;102826.41;;;11.92;25.59
31331;BME280;34067;39.548;-76.088;2023-04-08T01:45:26;102830.70;;;11.35;25.43
31331;BME280;34067;39.548;-76.088;2023-04-08T01:47:55;102832.61;;;12.20;25.89
31331;BME280;34067;39.548;-76.088;2023-04-08T01:50:23;102833.52;;;12.43;25.67
31331;BME280;34067;39.548;-76.088;2023-04-08T01:52:54;102833.38;;;12.19;25.85
31331;BME280;34067;39.548;-76.088;2023-04-08T01:55:24;102834.23;;;12.45;25.31
31331;BME280;34067;39.548;-76.088;2023-04-08T01:57:54;102836.33;;;12.18;26.05
31331;BME280;34067;39.548;-76.088;2023-04-08T02:00:27;102830.38;;;12.12;26.06
31331;BME280;34067;39.548;-76.088;2023-04-08T02:02:55;102840.23;;;12.64;25.15
31331;BME280;34067;39.548;-76.088;2023-04-08T02:05:24;102840.35;;;12.73;25.31
31331;BME280;34067;39.548;-76.088;2023-04-08T02:07:51;102844.12;;;12.90;25.50
31331;BME280;34067;39.548;-76.088;2023-04-08T02:10:20;102843.16;;;12.80;26.12
31331;BME280;34067;39.548;-76.088;2023-04-08T02:12:49;102836.71;;;12.62;25.69
31331;BME280;34067;39.548;-76.088;2023-04-08T02:15:17;102844.33;;;12.65;26.61
31331;BME280;34067;39.548;-76.088;2023-04-08T02:17:50;102848.78;;;12.20;27.55
31331;BME280;34067;39.548;-76.088;2023-04-08T02:20:22;102854.96;;;12.58;28.99
31331;BME280;34067;39.548;-76.088;2023-04-08T02:22:58;102856.20;;;12.76;28.69
31331;BME280;34067;39.548;-76.088;2023-04-08T02:25:30;102849.65;;;11.85;29.60
31331;BME280;34067;39.548;-76.088;2023-04-08T02:28:03;102851.15;;;12.40;28.99
31331;BME280;34067;39.548;-76.088;2023-04-08T02:30:35;102850.69;;;11.97;27.51
31331;BME280;34067;39.548;-76.088;2023-04-08T02:33:04;102848.77;;;12.13;27.22
31331;BME280;34067;39.548;-76.088;2023-04-08T02:35:33;102847.52;;;12.00;27.72
31331;BME280;34067;39.548;-76.088;2023-04-08T02:38:02;102845.67;;;11.73;27.59
31331;BME280;34067;39.548;-76.088;2023-04-08T02:40:32;102841.31;;;12.75;28.87
31331;BME280;34067;39.548;-76.088;2023-04-08T02:43:00;102833.47;;;12.78;28.30
31331;BME280;34067;39.548;-76.088;2023-04-08T02:45:30;102831.96;;;11.77;26.87
31331;BME280;34067;39.548;-76.088;2023-04-08T02:47:59;102833.20;;;11.81;26.53
31331;BME280;34067;39.548;-76.088;2023-04-08T02:50:27;102841.51;;;12.20;27.54
31331;BME280;34067;39.548;-76.088;2023-04-08T02:52:56;102839.60;;;12.17;29.24
31331;BME280;34067;39.548;-76.088;2023-04-08T02:55:24;102839.71;;;11.77;28.28
31331;BME280;34067;39.548;-76.088;2023-04-08T02:57:52;102841.26;;;11.26;27.14
31331;BME280;34067;39.548;-76.088;2023-04-08T03:00:20;102847.91;;;10.98;26.01
31331;BME280;34067;39.548;-76.088;2023-04-08T03:02:48;102849.54;;;12.15;25.84
31331;BME280;34067;39.548;-76.088;2023-04-08T03:05:16;102842.62;;;11.97;28.04
31331;BME280;34067;39.548;-76.088;2023-04-08T03:07:44;102846.06;;;12.30;27.40
31331;BME280;34067;39.548;-76.088;2023-04-08T03:10:12;102842.85;;;11.69;28.29
31331;BME280;34067;39.548;-76.088;2023-04-08T03:12:41;102841.40;;;11.58;28.47
31331;BME280;34067;39.548;-76.088;2023-04-08T03:15:09;102837.03;;;11.61;29.57
31331;BME280;34067;39.548;-76.088;2023-04-08T03:17:37;102835.54;;;11.86;29.62
31331;BME280;34067;39.548;-76.088;2023-04-08T03:20:06;102835.26;;;11.93;30.42
31331;BME280;34067;39.548;-76.088;2023-04-08T03:22:35;102830.53;;;11.75;31.32
31331;BME280;34067;39.548;-76.088;2023-04-08T03:25:04;102831.23;;;12.04;32.00
31331;BME280;34067;39.548;-76.088;2023-04-08T03:27:31;102832.70;;;11.76;32.84
31331;BME280;34067;39.548;-76.088;2023-04-08T03:29:59;102828.71;;;12.49;33.49
31331;BME280;34067;39.548;-76.088;2023-04-08T03:32:28;102830.89;;;11.42;34.58
31331;BME280;34067;39.548;-76.088;2023-04-08T03:34:56;102833.11;;;11.73;35.66
31331;BME280;34067;39.548;-76.088;2023-04-08T03:37:24;102834.39;;;12.41;36.20
31331;BME280;34067;39.548;-76.088;2023-04-08T03:39:53;102835.19;;;11.75;35.30
31331;BME280;34067;39.548;-76.088;2023-04-08T03:42:22;102840.24;;;11.78;35.65
31331;BME280;34067;39.548;-76.088;2023-04-08T03:44:49;102845.33;;;11.46;36.09
31331;BME280;34067;39.548;-76.088;2023-04-08T03:47:18;102847.24;;;11.70;35.65
31331;BME280;34067;39.548;-76.088;2023-04-08T03:49:46;102845.26;;;11.70;36.08
31331;BME280;34067;39.548;-76.088;2023-04-08T03:52:14;102840.98;;;11.62;36.38
31331;BME280;34067;39.548;-76.088;2023-04-08T03:54:42;102843.82;;;10.69;37.31
31331;BME280;34067;39.548;-76.088;2023-04-08T03:57:10;102841.72;;;11.69;36.46
31331;BME280;34067;39.548;-76.088;2023-04-08T03:59:38;102839.03;;;12.15;36.14
31331;BME280;34067;39.548;-76.088;2023-04-08T04:02:07;102841.30;;;10.52;37.78
31331;BME280;34067;39.548;-76.088;2023-04-08T04:04:35;102842.25;;;11.71;37.77
31331;BME280;34067;39.548;-76.088;2023-04-08T04:07:03;102839.47;;;11.57;37.64
31331;BME280;34067;39.548;-76.088;2023-04-08T04:09:31;102839.15;;;11.44;37.81
31331;BME280;34067;39.548;-76.088;2023-04-08T04:11:59;102834.74;;;11.30;37.56
31331;BME280;34067;39.548;-76.088;2023-04-08T04:14:28;102836.99;;;11.11;38.14
31331;BME280;34067;39.548;-76.088;2023-04-08T04:16:56;102838.07;;;11.20;38.99
31331;BME280;34067;39.548;-76.088;2023-04-08T04:19:24;102833.89;;;11.20;38.46
31331;BME280;34067;39.548;-76.088;2023-04-08T04:21:55;102831.80;;;11.15;38.35
31331;BME280;34067;39.548;-76.088;2023-04-08T04:24:24;102832.42;;;10.43;38.60
31331;BME280;34067;39.548;-76.088;2023-04-08T04:26:52;102834.74;;;10.46;39.30
31331;BME280;34067;39.548;-76.088;2023-04-08T04:29:20;102837.41;;;10.47;39.60
31331;BME280;34067;39.548;-76.088;2023-04-08T04:31:48;102840.07;;;9.65;40.40
31331;BME280;34067;39.548;-76.088;2023-04-08T04:34:17;102837.34;;;10.38;39.51
31331;BME280;34067;39.548;-76.088;2023-04-08T04:36:45;102846.67;;;9.82;39.95
31331;BME280;34067;39.548;-76.088;2023-04-08T04:39:13;102842.77;;;9.28;40.89
31331;BME280;34067;39.548;-76.088;2023-04-08T04:41:41;102848.61;;;9.81;41.73
31331;BME280;34067;39.548;-76.088;2023-04-08T04:44:09;102848.98;;;8.36;43.05
31331;BME280;34067;39.548;-76.088;2023-04-08T04:46:37;102851.02;;;9.10;42.47
31331;BME280;34067;39.548;-76.088;2023-04-08T04:49:05;102847.47;;;9.87;43.46
31331;BME280;34067;39.548;-76.088;2023-04-08T04:51:33;102853.95;;;9.61;44.09
31331;BME280;34067;39.548;-76.088;2023-04-08T04:54:00;102856.79;;;8.03;44.89
31331;BME280;34067;39.548;-76.088;2023-04-08T04:56:28;102862.86;;;8.08;42.96
31331;BME280;34067;39.548;-76.088;2023-04-08T04:58:56;102864.71;;;8.46;45.17
31331;BME280;34067;39.548;-76.088;2023-04-08T05:03:16;102864.40;;;6.98;48.58
31331;BME280;34067;39.548;-76.088;2023-04-08T05:05:44;102863.81;;;5.77;52.63
31331;BME280;34067;39.548;-76.088;2023-04-08T05:08:12;102862.85;;;7.57;49.99
31331;BME280;34067;39.548;-76.088;2023-04-08T05:10:40;102865.72;;;7.09;47.86
31331;BME280;34067;39.548;-76.088;2023-04-08T05:13:08;102879.34;;;7.01;47.82
31331;BME280;34067;39.548;-76.088;2023-04-08T05:15:36;102886.98;;;6.69;49.68
31331;BME280;34067;39.548;-76.088;2023-04-08T05:18:05;102894.34;;;5.64;52.21
31331;BME280;34067;39.548;-76.088;2023-04-08T05:20:33;102893.98;;;6.60;48.40
31331;BME280;34067;39.548;-76.088;2023-04-08T05:23:01;102905.44;;;5.72;48.18
31331;BME280;34067;39.548;-76.088;2023-04-08T05:25:30;102913.98;;;6.62;42.33
31331;BME280;34067;39.548;-76.088;2023-04-08T05:27:58;102916.51;;;6.56;47.91
31331;BME280;34067;39.548;-76.088;2023-04-08T05:30:25;102913.22;;;5.00;40.62
31331;BME280;34067;39.548;-76.088;2023-04-08T05:32:54;102913.71;;;5.83;38.05
31331;BME280;34067;39.548;-76.088;2023-04-08T05:35:22;102927.07;;;5.80;41.36
31331;BME280;34067;39.548;-76.088;2023-04-08T05:37:50;102943.54;;;6.18;40.75
31331;BME280;34067;39.548;-76.088;2023-04-08T05:40:19;102946.02;;;5.66;38.67
31331;BME280;34067;39.548;-76.088;2023-04-08T05:42:46;102952.54;;;5.17;42.38
31331;BME280;34067;39.548;-76.088;2023-04-08T05:45:15;102962.39;;;6.52;39.63
31331;BME280;34067;39.548;-76.088;2023-04-08T05:47:43;102963.39;;;6.22;38.90
31331;BME280;34067;39.548;-76.088;2023-04-08T05:50:11;102963.31;;;6.22;41.91
31331;BME280;34067;39.548;-76.088;2023-04-08T05:52:42;102951.91;;;5.58;40.51
31331;BME280;34067;39.548;-76.088;2023-04-08T05:55:12;102954.51;;;5.11;40.55
31331;BME280;34067;39.548;-76.088;2023-04-08T05:57:40;102945.87;;;5.09;40.47
31331;BME280;34067;39.548;-76.088;2023-04-08T06:00:09;102951.85;;;5.34;41.68
31331;BME280;34067;39.548;-76.088;2023-04-08T06:02:37;102947.71;;;6.13;39.83
31331;BME280;34067;39.548;-76.088;2023-04-08T06:05:06;102955.07;;;4.85;41.18
31331;BME280;34067;39.548;-76.088;2023-04-08T06:07:34;102947.04;;;5.74;41.73
31331;BME280;34067;39.548;-76.088;2023-04-08T06:10:02;102937.09;;;5.84;41.00
31331;BME280;34067;39.548;-76.088;2023-04-08T06:12:30;102944.03;;;4.60;40.04
31331;BME280;34067;39.548;-76.088;2023-04-08T06:14:58;102949.78;;;5.70;42.62
31331;BME280;34067;39.548;-76.088;2023-04-08T06:17:27;102946.64;;;5.41;42.24
31331;BME280;34067;39.548;-76.088;2023-04-08T06:19:55;102948.36;;;5.22;46.25
31331;BME280;34067;39.548;-76.088;2023-04-08T06:22:23;102951.84;;;5.59;41.33
31331;BME280;34067;39.548;-76.088;2023-04-08T06:24:52;102961.00;;;4.32;44.93
31331;BME280;34067;39.548;-76.088;2023-04-08T06:27:20;102961.61;;;5.64;44.66
31331;BME280;34067;39.548;-76.088;2023-04-08T06:29:47;102972.52;;;3.86;44.29
31331;BME280;34067;39.548;-76.088;2023-04-08T06:32:15;102969.36;;;4.40;44.95
31331;BME280;34067;39.548;-76.088;2023-04-08T06:34:44;102971.32;;;5.39;43.75
31331;BME280;34067;39.548;-76.088;2023-04-08T06:37:12;102974.17;;;6.06;41.83
31331;BME280;34067;39.548;-76.088;2023-04-08T06:39:39;102972.23;;;4.61;40.97
31331;BME280;34067;39.548;-76.088;2023-04-08T06:42:08;102976.75;;;5.65;42.72
31331;BME280;34067;39.548;-76.088;2023-04-08T06:44:36;102977.90;;;5.39;42.19
31331;BME280;34067;39.548;-76.088;2023-04-08T06:47:04;102974.74;;;5.73;44.33
31331;BME280;34067;39.548;-76.088;2023-04-08T06:49:32;102971.55;;;5.80;41.62
31331;BME280;34067;39.548;-76.088;2023-04-08T06:51:59;102970.35;;;5.17;41.63
31331;BME280;34067;39.548;-76.088;2023-04-08T06:54:27;102979.50;;;4.97;41.54
31331;BME280;34067;39.548;-76.088;2023-04-08T06:56:55;102985.78;;;5.17;41.19
31331;BME280;34067;39.548;-76.088;2023-04-08T06:59:22;102983.73;;;4.97;40.83
31331;BME280;34067;39.548;-76.088;2023-04-08T07:01:51;102980.60;;;5.71;43.67
31331;BME280;34067;39.548;-76.088;2023-04-08T07:04:19;102984.74;;;4.93;41.63
31331;BME280;34067;39.548;-76.088;2023-04-08T07:06:47;102987.69;;;4.57;42.01
31331;BME280;34067;39.548;-76.088;2023-04-08T07:09:14;102979.32;;;4.94;44.39
31331;BME280;34067;39.548;-76.088;2023-04-08T07:11:43;102985.91;;;4.62;43.13
31331;BME280;34067;39.548;-76.088;2023-04-08T07:14:11;102984.93;;;5.55;42.08
31331;BME280;34067;39.548;-76.088;2023-04-08T07:16:39;102993.47;;;5.05;41.68
31331;BME280;34067;39.548;-76.088;2023-04-08T07:19:06;102993.75;;;4.39;40.98
31331;BME280;34067;39.548;-76.088;2023-04-08T07:21:35;102991.21;;;5.69;42.01
31331;BME280;34067;39.548;-76.088;2023-04-08T07:24:03;102990.57;;;5.57;39.80
31331;BME280;34067;39.548;-76.088;2023-04-08T07:26:31;102996.27;;;5.83;41.63
31331;BME280;34067;39.548;-76.088;2023-04-08T07:28:58;102993.20;;;5.92;40.62
31331;BME280;34067;39.548;-76.088;2023-04-08T07:31:26;102996.41;;;4.92;40.05
31331;BME280;34067;39.548;-76.088;2023-04-08T07:33:53;103000.72;;;5.05;43.68
31331;BME280;34067;39.548;-76.088;2023-04-08T07:36:21;103006.20;;;5.62;40.29
31331;BME280;34067;39.548;-76.088;2023-04-08T07:38:49;103002.59;;;5.22;40.68
31331;BME280;34067;39.548;-76.088;2023-04-08T07:41:18;103009.63;;;5.03;40.34
31331;BME280;34067;39.548;-76.088;2023-04-08T07:43:46;103016.13;;;5.61;42.81
31331;BME280;34067;39.548;-76.088;2023-04-08T07:46:14;103013.90;;;4.02;43.29
31331;BME280;34067;39.548;-76.088;2023-04-08T07:48:42;103018.58;;;4.52;41.27
31331;BME280;34067;39.548;-76.088;2023-04-08T07:51:10;103021.00;;;4.42;44.78
31331;BME280;34067;39.548;-76.088;2023-04-08T07:53:39;103025.04;;;3.89;43.07
31331;BME280;34067;39.548;-76.088;2023-04-08T07:56:11;103025.24;;;4.10;41.19
31331;BME280;34067;39.548;-76.088;2023-04-08T07:58:41;103028.63;;;4.37;41.57
31331;BME280;34067;39.548;-76.088;2023-04-08T08:01:17;103036.33;;;4.44;43.86
31331;BME280;34067;39.548;-76.088;2023-04-08T08:03:45;103038.60;;;2.81;42.82
31331;BME280;34067;39.548;-76.088;2023-04-08T08:06:13;103034.42;;;3.59;40.88
31331;BME280;34067;39.548;-76.088;2023-04-08T08:08:42;103041.81;;;4.75;43.06
31331;BME280;34067;39.548;-76.088;2023-04-08T08:11:10;103044.13;;;5.05;44.80
31331;BME280;34067;39.548;-76.088;2023-04-08T08:13:38;103045.78;;;3.36;42.38
31331;BME280;34067;39.548;-76.088;2023-04-08T08:16:06;103052.36;;;3.98;44.98
31331;BME280;34067;39.548;-76.088;2023-04-08T08:18:34;103065.72;;;4.22;43.00
31331;BME280;34067;39.548;-76.088;2023-04-08T08:21:02;103072.01;;;3.58;39.54
31331;BME280;34067;39.548;-76.088;2023-04-08T08:23:31;103074.55;;;3.69;42.32
31331;BME280;34067;39.548;-76.088;2023-04-08T08:25:59;103075.70;;;4.32;42.69
31331;BME280;34067;39.548;-76.088;2023-04-08T08:28:27;103088.35;;;4.29;42.93
31331;BME280;34067;39.548;-76.088;2023-04-08T08:30:55;103101.88;;;3.78;41.65
31331;BME280;34067;39.548;-76.088;2023-04-08T08:33:24;103094.51;;;3.24;40.17
31331;BME280;34067;39.548;-76.088;2023-04-08T08:35:52;103092.91;;;3.62;40.73
31331;BME280;34067;39.548;-76.088;2023-04-08T08:38:19;103098.80;;;3.68;42.38
31331;BME280;34067;39.548;-76.088;2023-04-08T08:40:53;103098.58;;;4.29;44.85
31331;BME280;34067;39.548;-76.088;2023-04-08T08:43:21;103096.95;;;3.77;41.77
31331;BME280;34067;39.548;-76.088;2023-04-08T08:45:49;103094.50;;;2.33;42.70
31331;BME280;34067;39.548;-76.088;2023-04-08T08:48:17;103098.45;;;3.66;39.94
31331;BME280;34067;39.548;-76.088;2023-04-08T08:50:45;103107.96;;;3.33;45.92
31331;BME280;34067;39.548;-76.088;2023-04-08T08:53:13;103115.19;;;2.36;43.89
31331;BME280;34067;39.548;-76.088;2023-04-08T08:55:40;103117.29;;;3.49;41.25
31331;BME280;34067;39.548;-76.088;2023-04-08T08:58:08;103123.76;;;3.39;44.26
31331;BME280;34067;39.548;-76.088;2023-04-08T09:00:37;103130.63;;;2.94;41.97
31331;BME280;34067;39.548;-76.088;2023-04-08T09:03:22;103142.51;;;3.89;42.67
31331;BME280;34067;39.548;-76.088;2023-04-08T09:05:52;103140.25;;;2.83;41.19
31331;BME280;34067;39.548;-76.088;2023-04-08T09:08:25;103154.70;;;3.33;45.16
31331;BME280;34067;39.548;-76.088;2023-04-08T09:10:53;103157.17;;;3.09;42.74
31331;BME280;34067;39.548;-76.088;2023-04-08T09:13:22;103148.85;;;3.50;41.36
31331;BME280;34067;39.548;-76.088;2023-04-08T09:16:07;103146.18;;;3.79;43.15
31331;BME280;34067;39.548;-76.088;2023-04-08T09:18:36;103153.01;;;2.77;44.18
31331;BME280;34067;39.548;-76.088;2023-04-08T09:21:05;103157.00;;;4.00;46.22
31331;BME280;34067;39.548;-76.088;2023-04-08T09:23:38;103160.07;;;2.91;43.16
31331;BME280;34067;39.548;-76.088;2023-04-08T09:26:09;103162.73;;;2.58;43.92
31331;BME280;34067;39.548;-76.088;2023-04-08T09:28:38;103161.72;;;1.86;44.08
31331;BME280;34067;39.548;-76.088;2023-04-08T09:31:21;103172.26;;;3.21;43.66
31331;BME280;34067;39.548;-76.088;2023-04-08T09:33:52;103172.13;;;2.71;43.28
31331;BME280;34067;39.548;-76.088;2023-04-08T09:36:20;103173.37;;;1.66;45.27
31331;BME280;34067;39.548;-76.088;2023-04-08T09:38:49;103173.20;;;2.26;44.01
31331;BME280;34067;39.548;-76.088;2023-04-08T09:41:18;103171.13;;;2.54;44.14
31331;BME280;34067;39.548;-76.088;2023-04-08T09:43:48;103182.14;;;1.88;43.35
31331;BME280;34067;39.548;-76.088;2023-04-08T09:46:18;103183.68;;;3.15;47.41
31331;BME280;34067;39.548;-76.088;2023-04-08T09:48:59;103177.87;;;3.29;43.82
31331;BME280;34067;39.548;-76.088;2023-04-08T09:51:47;103177.07;;;1.88;44.63
31331;BME280;34067;39.548;-76.088;2023-04-08T09:54:19;103185.37;;;1.97;48.06
31331;BME280;34067;39.548;-76.088;2023-04-08T09:56:53;103192.18;;;2.85;44.46
31331;BME280;34067;39.548;-76.088;2023-04-08T09:59:25;103199.82;;;1.64;44.87
31331;BME280;34067;39.548;-76.088;2023-04-08T10:01:55;103198.24;;;2.01;46.73
31331;BME280;34067;39.548;-76.088;2023-04-08T10:04:26;103208.13;;;1.77;46.49
31331;BME280;34067;39.548;-76.088;2023-04-08T10:06:59;103196.77;;;2.19;43.30
31331;BME280;34067;39.548;-76.088;2023-04-08T10:09:31;103211.66;;;2.57;48.68
31331;BME280;34067;39.548;-76.088;2023-04-08T10:11:59;103216.50;;;1.96;43.04
31331;BME280;34067;39.548;-76.088;2023-04-08T10:14:27;103211.63;;;1.51;44.32
31331;BME280;34067;39.548;-76.088;2023-04-08T10:17:23;103213.51;;;2.13;43.60
31331;BME280;34067;39.548;-76.088;2023-04-08T10:19:52;103220.25;;;1.71;46.22
31331;BME280;34067;39.548;-76.088;2023-04-08T10:22:52;103227.23;;;1.80;45.70
31331;BME280;34067;39.548;-76.088;2023-04-08T10:25:35;103229.58;;;1.82;44.09
31331;BME280;34067;39.548;-76.088;2023-04-08T10:28:24;103227.75;;;1.61;44.70
31331;BME280;34067;39.548;-76.088;2023-04-08T10:30:52;103237.05;;;2.58;45.11
31331;BME280;34067;39.548;-76.088;2023-04-08T10:33:23;103237.75;;;1.85;46.16
31331;BME280;34067;39.548;-76.088;2023-04-08T10:35:53;103240.88;;;1.89;49.05
31331;BME280;34067;39.548;-76.088;2023-04-08T10:38:22;103252.94;;;2.16;50.14
31331;BME280;34067;39.548;-76.088;2023-04-08T10:40:50;103246.74;;;1.85;47.53
31331;BME280;34067;39.548;-76.088;2023-04-08T10:43:18;103247.41;;;1.06;46.21
31331;BME280;34067;39.548;-76.088;2023-04-08T10:45:45;103245.65;;;1.47;44.03
31331;BME280;34067;39.548;-76.088;2023-04-08T10:48:16;103261.05;;;1.85;44.01
31331;BME280;34067;39.548;-76.088;2023-04-08T10:50:52;103271.61;;;2.73;46.13
31331;BME280;34067;39.548;-76.088;2023-04-08T10:53:25;103270.61;;;0.86;48.97
31331;BME280;34067;39.548;-76.088;2023-04-08T10:55:54;103259.46;;;1.93;46.51
31331;BME280;34067;39.548;-76.088;2023-04-08T10:58:22;103266.48;;;1.27;46.42
31331;BME280;34067;39.548;-76.088;2023-04-08T11:00:50;103275.32;;;1.85;47.07
31331;BME280;34067;39.548;-76.088;2023-04-08T11:03:18;103265.67;;;1.81;49.65
31331;BME280;34067;39.548;-76.088;2023-04-08T11:05:48;103270.14;;;1.47;44.75
31331;BME280;34067;39.548;-76.088;2023-04-08T11:08:17;103273.01;;;2.07;46.09
31331;BME280;34067;39.548;-76.088;2023-04-08T11:10:45;103272.08;;;2.05;47.01
31331;BME280;34067;39.548;-76.088;2023-04-08T11:13:14;103275.54;;;1.38;45.84
31331;BME280;34067;39.548;-76.088;2023-04-08T11:15:42;103286.01;;;0.79;47.55
31331;BME280;34067;39.548;-76.088;2023-04-08T11:18:10;103289.27;;;2.04;50.62
31331;BME280;34067;39.548;-76.088;2023-04-08T11:20:38;103290.81;;;1.56;45.77
31331;BME280;34067;39.548;-76.088;2023-04-08T11:23:11;103290.07;;;1.83;44.85
31331;BME280;34067;39.548;-76.088;2023-04-08T11:25:39;103298.79;;;1.80;45.70
31331;BME280;34067;39.548;-76.088;2023-04-08T11:28:08;103310.28;;;1.27;44.31
31331;BME280;34067;39.548;-76.088;2023-04-08T11:30:37;103303.43;;;2.08;47.13
31331;BME280;34067;39.548;-76.088;2023-04-08T11:33:04;103306.68;;;2.43;48.19
31331;BME280;34067;39.548;-76.088;2023-04-08T11:35:33;103303.16;;;2.49;46.22
31331;BME280;34067;39.548;-76.088;2023-04-08T11:38:05;103308.33;;;1.68;49.46
31331;BME280;34067;39.548;-76.088;2023-04-08T11:40:33;103323.52;;;1.92;46.27
31331;BME280;34067;39.548;-76.088;2023-04-08T11:43:08;103322.25;;;2.81;44.94
31331;BME280;34067;39.548;-76.088;2023-04-08T11:45:38;103341.46;;;1.97;43.42
31331;BME280;34067;39.548;-76.088;2023-04-08T11:48:09;103346.87;;;1.01;46.81
31331;BME280;34067;39.548;-76.088;2023-04-08T11:50:37;103347.29;;;0.65;45.16
31331;BME280;34067;39.548;-76.088;2023-04-08T11:53:16;103338.64;;;1.58;46.44
31331;BME280;34067;39.548;-76.088;2023-04-08T11:55:45;103348.45;;;1.93;46.54
31331;BME280;34067;39.548;-76.088;2023-04-08T11:58:13;103366.28;;;2.59;44.81
31331;BME280;34067;39.548;-76.088;2023-04-08T12:00:42;103369.69;;;2.62;47.16
31331;BME280;34067;39.548;-76.088;2023-04-08T12:03:10;103371.11;;;2.15;47.23
31331;BME280;34067;39.548;-76.088;2023-04-08T12:05:38;103374.11;;;3.09;43.84
31331;BME280;34067;39.548;-76.088;2023-04-08T12:08:06;103378.21;;;1.61;43.41
31331;BME280;34067;39.548;-76.088;2023-04-08T12:10:34;103381.71;;;2.13;45.95
31331;BME280;34067;39.548;-76.088;2023-04-08T12:13:02;103386.83;;;1.76;47.96
31331;BME280;34067;39.548;-76.088;2023-04-08T12:15:30;103385.43;;;2.45;46.27
31331;BME280;34067;39.548;-76.088;2023-04-08T12:17:57;103387.91;;;1.61;45.64
31331;BME280;34067;39.548;-76.088;2023-04-08T12:20:25;103396.87;;;2.32;48.31
31331;BME280;34067;39.548;-76.088;2023-04-08T12:22:53;103395.88;;;1.88;44.32
31331;BME280;34067;39.548;-76.088;2023-04-08T12:25:20;103391.40;;;2.35;46.71
31331;BME280;34067;39.548;-76.088;2023-04-08T12:27:49;103399.50;;;2.52;45.23
31331;BME280;34067;39.548;-76.088;2023-04-08T12:30:16;103398.25;;;2.36;46.45
31331;BME280;34067;39.548;-76.088;2023-04-08T12:32:44;103393.89;;;1.46;45.20
31331;BME280;34067;39.548;-76.088;2023-04-08T12:35:12;103386.77;;;1.83;44.93
31331;BME280;34067;39.548;-76.088;2023-04-08T12:37:40;103378.39;;;3.02;44.56
31331;BME280;34067;39.548;-76.088;2023-04-08T12:40:08;103372.97;;;2.43;44.74
31331;BME280;34067;39.548;-76.088;2023-04-08T12:42:35;103381.18;;;1.00;46.01
31331;BME280;34067;39.548;-76.088;2023-04-08T12:45:04;103381.41;;;2.20;45.03
31331;BME280;34067;39.548;-76.088;2023-04-08T12:47:31;103382.21;;;2.02;41.59